sensor_id;sensor_type;location;lat;lon;timestamp;pressure;altitude;pressure_sealevel;temperature;humidity
49723;BME280;43484;43.608;1.458;2023-03-23T00:02:00;99404.25;;;14.09;100.00
49723;BME280;43484;43.608;1.458;2023-03-23T00:04:26;99405.06;;;14.05;100.00
49723;BME280;43484;43.608;1.458;2023-03-23T00:06:54;99405.91;;;14.04;100.00
49723;BME280;43484;43.608;1.458;2023-03-23T00:09:19;99414.44;;;13.97;100.00
49723;BME280;43484;43.608;1.458;2023-03-23T00:11:50;99401.56;;;13.99;100.00
49723;BME280;43484;43.608;1.458;2023-03-23T00:14:16;99406.72;;;13.99;100.00
49723;BME280;43484;43.608;1.458;2023-03-23T00:16:48;99392.13;;;13.95;100.00
49723;BME280;43484;43.608;1.458;2023-03-23T00:19:14;99393.84;;;13.99;100.00
49723;BME280;43484;43.608;1.458;2023-03-23T00:21:41;99387.81;;;13.95;100.00
49723;BME280;43484;43.608;1.458;2023-03-23T00:24:16;99392.13;;;13.95;100.00
49723;BME280;43484;43.608;1.458;2023-03-23T00:26:46;99391.28;;;13.99;100.00
49723;BME280;43484;43.608;1.458;2023-03-23T00:29:13;99395.53;;;13.95;100.00
49723;BME280;43484;43.608;1.458;2023-03-23T00:31:40;99387.78;;;13.92;100.00
49723;BME280;43484;43.608;1.458;2023-03-23T00:34:06;99388.66;;;13.93;100.00
49723;BME280;43484;43.608;1.458;2023-03-23T00:36:33;99380.94;;;13.93;100.00
49723;BME280;43484;43.608;1.458;2023-03-23T00:39:01;99386.91;;;13.90;100.00
49723;BME280;43484;43.608;1.458;2023-03-23T00:41:27;99388.63;;;13.88;100.00
49723;BME280;43484;43.608;1.458;2023-03-23T00:43:57;99389.44;;;13.85;100.00
49723;BME280;43484;43.608;1.458;2023-03-23T00:46:26;99391.13;;;13.80;100.00
49723;BME280;43484;43.608;1.458;2023-03-23T00:48:51;99391.16;;;13.86;100.00
49723;BME280;43484;43.608;1.458;2023-03-23T00:51:18;99379.09;;;13.79;100.00
49723;BME280;43484;43.608;1.458;2023-03-23T00:53:44;99384.25;;;13.78;100.00
49723;BME280;43484;43.608;1.458;2023-03-23T00:56:10;99378.19;;;13.73;100.00
49723;BME280;43484;43.608;1.458;2023-03-23T00:58:36;99373.88;;;13.72;100.00
49723;BME280;43484;43.608;1.458;2023-03-23T01:01:02;99366.09;;;13.66;100.00
49723;BME280;43484;43.608;1.458;2023-03-23T01:03:28;99373.78;;;13.63;100.00
49723;BME280;43484;43.608;1.458;2023-03-23T01:05:54;99360.03;;;13.58;100.00
49723;BME280;43484;43.608;1.458;2023-03-23T01:08:21;99359.13;;;13.54;100.00
49723;BME280;43484;43.608;1.458;2023-03-23T01:10:47;99357.44;;;13.58;100.00
49723;BME280;43484;43.608;1.458;2023-03-23T01:13:14;99354.78;;;13.50;100.00
49723;BME280;43484;43.608;1.458;2023-03-23T01:15:40;99355.59;;;13.46;100.00
49723;BME280;43484;43.608;1.458;2023-03-23T01:18:07;99347.81;;;13.42;100.00
49723;BME280;43484;43.608;1.458;2023-03-23T01:20:35;99353.75;;;13.33;100.00
49723;BME280;43484;43.608;1.458;2023-03-23T01:23:01;99359.72;;;13.31;100.00
49723;BME280;43484;43.608;1.458;2023-03-23T01:25:28;99350.28;;;13.30;100.00
49723;BME280;43484;43.608;1.458;2023-03-23T01:27:54;99349.44;;;13.29;100.00
49723;BME280;43484;43.608;1.458;2023-03-23T01:30:19;99347.66;;;13.24;100.00
49723;BME280;43484;43.608;1.458;2023-03-23T01:32:45;99346.75;;;13.20;100.00
49723;BME280;43484;43.608;1.458;2023-03-23T01:35:12;99338.06;;;13.11;100.00
49723;BME280;43484;43.608;1.458;2023-03-23T01:37:38;99337.22;;;13.13;100.00
49723;BME280;43484;43.608;1.458;2023-03-23T01:40:04;99334.63;;;13.10;100.00
49723;BME280;43484;43.608;1.458;2023-03-23T01:42:34;99327.78;;;13.09;100.00
49723;BME280;43484;43.608;1.458;2023-03-23T01:47:46;99316.59;;;13.06;100.00
49723;BME280;43484;43.608;1.458;2023-03-23T01:50:12;99312.13;;;12.94;100.00
49723;BME280;43484;43.608;1.458;2023-03-23T01:52:38;99314.72;;;12.96;100.00
49723;BME280;43484;43.608;1.458;2023-03-23T01:55:05;99296.72;;;12.96;100.00
49723;BME280;43484;43.608;1.458;2023-03-23T01:57:31;99293.25;;;12.92;100.00
49723;BME280;43484;43.608;1.458;2023-03-23T01:59:59;99282.88;;;12.86;100.00
49723;BME280;43484;43.608;1.458;2023-03-23T02:02:27;99274.31;;;12.84;100.00
49723;BME280;43484;43.608;1.458;2023-03-23T02:04:55;99260.59;;;12.85;100.00
49723;BME280;43484;43.608;1.458;2023-03-23T02:07:24;99244.31;;;12.83;100.00
49723;BME280;43484;43.608;1.458;2023-03-23T02:09:51;99245.16;;;12.81;100.00
49723;BME280;43484;43.608;1.458;2023-03-23T02:12:17;99248.53;;;12.78;100.00
49723;BME280;43484;43.608;1.458;2023-03-23T02:14:42;99235.66;;;12.77;100.00
49723;BME280;43484;43.608;1.458;2023-03-23T02:22:48;99206.44;;;12.66;100.00
49723;BME280;43484;43.608;1.458;2023-03-23T02:41:24;99118.97;;;12.59;100.00
49723;BME280;43484;43.608;1.458;2023-03-23T02:43:53;99115.56;;;12.59;100.00
49723;BME280;43484;43.608;1.458;2023-03-23T02:46:22;99110.44;;;12.60;100.00
49723;BME280;43484;43.608;1.458;2023-03-23T02:48:48;99103.53;;;12.56;100.00
49723;BME280;43484;43.608;1.458;2023-03-23T02:51:18;99106.09;;;12.55;100.00
49723;BME280;43484;43.608;1.458;2023-03-23T02:53:46;99113.81;;;12.55;100.00
49723;BME280;43484;43.608;1.458;2023-03-23T02:56:14;99104.41;;;12.57;100.00
49723;BME280;43484;43.608;1.458;2023-03-23T02:58:40;99101.84;;;12.55;100.00
49723;BME280;43484;43.608;1.458;2023-03-23T03:03:50;99079.53;;;12.51;100.00
49723;BME280;43484;43.608;1.458;2023-03-23T03:09:03;99062.31;;;12.43;100.00
49723;BME280;43484;43.608;1.458;2023-03-23T03:11:34;99059.75;;;12.46;100.00
49723;BME280;43484;43.608;1.458;2023-03-23T03:16:31;99049.44;;;12.40;100.00
49723;BME280;43484;43.608;1.458;2023-03-23T03:19:08;99030.56;;;12.35;100.00
49723;BME280;43484;43.608;1.458;2023-03-23T03:21:39;99029.69;;;12.36;100.00
49723;BME280;43484;43.608;1.458;2023-03-23T03:24:08;99023.66;;;12.29;100.00
49723;BME280;43484;43.608;1.458;2023-03-23T03:26:38;99018.53;;;12.31;100.00
49723;BME280;43484;43.608;1.458;2023-03-23T03:29:05;99022.84;;;12.35;100.00
49723;BME280;43484;43.608;1.458;2023-03-23T03:31:35;99020.28;;;12.32;100.00
49723;BME280;43484;43.608;1.458;2023-03-23T03:34:01;99022.84;;;12.35;100.00
49723;BME280;43484;43.608;1.458;2023-03-23T03:36:31;99027.16;;;12.37;100.00
49723;BME280;43484;43.608;1.458;2023-03-23T03:39:04;99020.25;;;12.29;100.00
49723;BME280;43484;43.608;1.458;2023-03-23T03:41:34;99026.28;;;12.34;100.00
49723;BME280;43484;43.608;1.458;2023-03-23T03:44:01;99034.91;;;12.39;100.00
49723;BME280;43484;43.608;1.458;2023-03-23T03:46:26;99038.31;;;12.42;100.00
49723;BME280;43484;43.608;1.458;2023-03-23T03:48:55;99030.59;;;12.38;100.00
49723;BME280;43484;43.608;1.458;2023-03-23T03:51:22;99039.16;;;12.37;100.00
49723;BME280;43484;43.608;1.458;2023-03-23T03:53:48;99043.44;;;12.38;100.00
49723;BME280;43484;43.608;1.458;2023-03-23T03:56:14;99044.25;;;12.34;100.00
49723;BME280;43484;43.608;1.458;2023-03-23T03:58:39;99047.66;;;12.31;100.00
49723;BME280;43484;43.608;1.458;2023-03-23T04:01:08;99045.06;;;12.31;100.00
49723;BME280;43484;43.608;1.458;2023-03-23T04:03:38;99050.19;;;12.27;100.00
49723;BME280;43484;43.608;1.458;2023-03-23T04:06:04;99047.66;;;12.31;100.00
49723;BME280;43484;43.608;1.458;2023-03-23T04:08:30;99046.69;;;12.20;100.00
49723;BME280;43484;43.608;1.458;2023-03-23T04:10:57;99036.41;;;12.20;100.00
49723;BME280;43484;43.608;1.458;2023-03-23T04:13:23;99037.25;;;12.19;100.00
49723;BME280;43484;43.608;1.458;2023-03-23T04:15:48;99044.16;;;12.25;100.00
49723;BME280;43484;43.608;1.458;2023-03-23T04:18:14;99038.16;;;12.24;100.00
49723;BME280;43484;43.608;1.458;2023-03-23T04:20:44;99042.44;;;12.24;100.00
49723;BME280;43484;43.608;1.458;2023-03-23T04:23:20;99048.44;;;12.24;100.00
49723;BME280;43484;43.608;1.458;2023-03-23T04:25:47;99050.16;;;12.25;100.00
49723;BME280;43484;43.608;1.458;2023-03-23T04:28:14;99057.03;;;12.29;100.00
49723;BME280;43484;43.608;1.458;2023-03-23T04:30:42;99055.34;;;12.30;100.00
49723;BME280;43484;43.608;1.458;2023-03-23T04:33:09;99059.63;;;12.32;100.00
49723;BME280;43484;43.608;1.458;2023-03-23T04:35:40;99073.41;;;12.39;100.00
49723;BME280;43484;43.608;1.458;2023-03-23T04:38:06;99085.41;;;12.41;100.00
49723;BME280;43484;43.608;1.458;2023-03-23T04:40:35;99101.72;;;12.45;100.00
49723;BME280;43484;43.608;1.458;2023-03-23T04:43:01;99113.69;;;12.44;100.00
49723;BME280;43484;43.608;1.458;2023-03-23T04:45:31;99111.16;;;12.47;100.00
49723;BME280;43484;43.608;1.458;2023-03-23T04:47:57;99124.03;;;12.49;100.00
49723;BME280;43484;43.608;1.458;2023-03-23T04:50:30;99126.63;;;12.50;100.00
49723;BME280;43484;43.608;1.458;2023-03-23T04:52:58;99130.00;;;12.49;100.00
49723;BME280;43484;43.608;1.458;2023-03-23T04:55:30;99133.56;;;12.59;100.00
49723;BME280;43484;43.608;1.458;2023-03-23T04:57:56;99147.28;;;12.62;100.00
49723;BME280;43484;43.608;1.458;2023-03-23T05:00:25;99149.00;;;12.60;100.00
49723;BME280;43484;43.608;1.458;2023-03-23T05:02:51;99147.22;;;12.58;100.00
49723;BME280;43484;43.608;1.458;2023-03-23T05:05:18;99144.66;;;12.56;100.00
49723;BME280;43484;43.608;1.458;2023-03-23T05:07:44;99147.31;;;12.64;100.00
49723;BME280;43484;43.608;1.458;2023-03-23T05:10:12;99148.97;;;12.59;100.00
49723;BME280;43484;43.608;1.458;2023-03-23T05:12:38;99143.75;;;12.53;100.00
49723;BME280;43484;43.608;1.458;2023-03-23T05:15:04;99140.34;;;12.54;100.00
49723;BME280;43484;43.608;1.458;2023-03-23T05:17:31;99143.84;;;12.60;100.00
49723;BME280;43484;43.608;1.458;2023-03-23T05:19:57;99142.09;;;12.58;100.00
49723;BME280;43484;43.608;1.458;2023-03-23T05:22:26;99153.25;;;12.58;100.00
49723;BME280;43484;43.608;1.458;2023-03-23T05:24:52;99157.47;;;12.52;100.00
49723;BME280;43484;43.608;1.458;2023-03-23T05:27:18;99146.25;;;12.45;100.00
49723;BME280;43484;43.608;1.458;2023-03-23T05:29:45;99141.97;;;12.47;100.00
49723;BME280;43484;43.608;1.458;2023-03-23T05:32:14;99141.94;;;12.41;100.00
49723;BME280;43484;43.608;1.458;2023-03-23T05:34:40;99142.81;;;12.43;100.00
49723;BME280;43484;43.608;1.458;2023-03-23T05:37:07;99137.72;;;12.49;100.00
49723;BME280;43484;43.608;1.458;2023-03-23T05:39:35;99139.41;;;12.46;100.00
49723;BME280;43484;43.608;1.458;2023-03-23T05:42:01;99138.59;;;12.50;100.00
49723;BME280;43484;43.608;1.458;2023-03-23T05:44:27;99139.47;;;12.50;100.00
49723;BME280;43484;43.608;1.458;2023-03-23T05:46:52;99134.31;;;12.49;100.00
49723;BME280;43484;43.608;1.458;2023-03-23T05:49:18;99148.00;;;12.51;100.00
49723;BME280;43484;43.608;1.458;2023-03-23T05:51:47;99140.34;;;12.54;100.00
49723;BME280;43484;43.608;1.458;2023-03-23T05:54:15;99148.84;;;12.47;100.00
49723;BME280;43484;43.608;1.458;2023-03-23T05:56:41;99137.66;;;12.43;100.00
49723;BME280;43484;43.608;1.458;2023-03-23T05:59:08;99139.41;;;12.46;100.00
49723;BME280;43484;43.608;1.458;2023-03-23T06:01:34;99145.38;;;12.42;100.00
49723;BME280;43484;43.608;1.458;2023-03-23T06:04:00;99137.72;;;12.48;100.00
49723;BME280;43484;43.608;1.458;2023-03-23T06:06:26;99125.63;;;12.38;100.00
49723;BME280;43484;43.608;1.458;2023-03-23T06:08:52;99114.53;;;12.42;100.00
49723;BME280;43484;43.608;1.458;2023-03-23T06:11:18;99124.84;;;12.46;100.00
49723;BME280;43484;43.608;1.458;2023-03-23T06:13:44;99122.28;;;12.45;100.00
49723;BME280;43484;43.608;1.458;2023-03-23T06:16:10;99130.00;;;12.46;100.00
49723;BME280;43484;43.608;1.458;2023-03-23T06:18:36;99142.03;;;12.50;100.00
49723;BME280;43484;43.608;1.458;2023-03-23T06:21:05;99149.72;;;12.49;100.00
49723;BME280;43484;43.608;1.458;2023-03-23T06:23:31;99148.00;;;12.51;100.00
49723;BME280;43484;43.608;1.458;2023-03-23T06:25:59;99156.63;;;12.54;100.00
49723;BME280;43484;43.608;1.458;2023-03-23T06:28:26;99161.72;;;12.51;100.00
49723;BME280;43484;43.608;1.458;2023-03-23T06:30:52;99168.56;;;12.52;100.00
49723;BME280;43484;43.608;1.458;2023-03-23T06:33:18;99182.28;;;12.53;100.00
49723;BME280;43484;43.608;1.458;2023-03-23T06:35:44;99189.19;;;12.55;100.00
49723;BME280;43484;43.608;1.458;2023-03-23T06:38:10;99184.06;;;12.57;100.00
49723;BME280;43484;43.608;1.458;2023-03-23T06:40:36;99205.59;;;12.70;100.00
49723;BME280;43484;43.608;1.458;2023-03-23T06:43:02;99209.94;;;12.75;100.00
49723;BME280;43484;43.608;1.458;2023-03-23T06:45:30;99219.47;;;12.82;100.00
49723;BME280;43484;43.608;1.458;2023-03-23T06:47:56;99227.19;;;12.85;100.00
49723;BME280;43484;43.608;1.458;2023-03-23T06:50:21;99241.84;;;12.92;100.00
49723;BME280;43484;43.608;1.458;2023-03-23T06:52:48;99275.31;;;12.97;100.00
49723;BME280;43484;43.608;1.458;2023-03-23T06:55:15;99271.09;;;13.02;100.00
49723;BME280;43484;43.608;1.458;2023-03-23T06:57:41;99283.97;;;13.02;100.00
49723;BME280;43484;43.608;1.458;2023-03-23T07:00:08;99296.03;;;13.09;100.00
49723;BME280;43484;43.608;1.458;2023-03-23T07:02:41;99302.09;;;13.14;100.00
49723;BME280;43484;43.608;1.458;2023-03-23T07:05:08;99326.16;;;13.20;100.00
49723;BME280;43484;43.608;1.458;2023-03-23T07:07:38;99336.50;;;13.26;100.00
49723;BME280;43484;43.608;1.458;2023-03-23T07:10:06;99349.47;;;13.35;100.00
49723;BME280;43484;43.608;1.458;2023-03-23T07:12:32;99358.09;;;13.39;100.00
49723;BME280;43484;43.608;1.458;2023-03-23T07:14:58;99359.81;;;13.40;100.00
49723;BME280;43484;43.608;1.458;2023-03-23T07:17:24;99373.59;;;13.46;100.00
49723;BME280;43484;43.608;1.458;2023-03-23T07:19:50;99386.53;;;13.49;100.00
49723;BME280;43484;43.608;1.458;2023-03-23T07:22:16;99378.66;;;13.36;100.00
49723;BME280;43484;43.608;1.458;2023-03-23T07:24:41;99383.88;;;13.46;100.00
49723;BME280;43484;43.608;1.458;2023-03-23T07:27:07;99384.75;;;13.47;100.00
49723;BME280;43484;43.608;1.458;2023-03-23T07:29:32;99380.47;;;13.44;100.00
49723;BME280;43484;43.608;1.458;2023-03-23T07:32:01;99385.66;;;13.49;100.00
49723;BME280;43484;43.608;1.458;2023-03-23T07:34:27;99394.31;;;13.58;100.00
49723;BME280;43484;43.608;1.458;2023-03-23T07:36:53;99398.56;;;13.53;100.00
49723;BME280;43484;43.608;1.458;2023-03-23T07:39:19;99389.09;;;13.48;100.00
49723;BME280;43484;43.608;1.458;2023-03-23T07:41:44;99377.03;;;13.45;100.00
49723;BME280;43484;43.608;1.458;2023-03-23T07:44:10;99387.38;;;13.50;100.00
49723;BME280;43484;43.608;1.458;2023-03-23T07:46:35;99386.44;;;13.45;100.00
49723;BME280;43484;43.608;1.458;2023-03-23T07:49:01;99385.72;;;13.56;100.00
49723;BME280;43484;43.608;1.458;2023-03-23T07:51:31;99392.63;;;13.60;100.00
49723;BME280;43484;43.608;1.458;2023-03-23T07:53:57;99387.47;;;13.60;100.00
49723;BME280;43484;43.608;1.458;2023-03-23T07:56:22;99395.16;;;13.56;100.00
49723;BME280;43484;43.608;1.458;2023-03-23T07:58:48;99379.72;;;13.54;100.00
49723;BME280;43484;43.608;1.458;2023-03-23T08:01:14;99381.38;;;13.51;100.00
49723;BME280;43484;43.608;1.458;2023-03-23T08:03:41;99364.19;;;13.50;100.00
49723;BME280;43484;43.608;1.458;2023-03-23T08:06:07;99360.88;;;13.60;100.00
49723;BME280;43484;43.608;1.458;2023-03-23T08:08:34;99363.50;;;13.63;100.00
49723;BME280;43484;43.608;1.458;2023-03-23T08:11:00;99355.78;;;13.63;100.00
49723;BME280;43484;43.608;1.458;2023-03-23T08:13:25;99360.09;;;13.67;100.00
49723;BME280;43484;43.608;1.458;2023-03-23T08:15:51;99336.16;;;13.77;100.00
49723;BME280;43484;43.608;1.458;2023-03-23T08:18:17;99339.63;;;13.80;100.00
49723;BME280;43484;43.608;1.458;2023-03-23T08:20:43;99350.03;;;13.93;100.00
49723;BME280;43484;43.608;1.458;2023-03-23T08:23:10;99342.31;;;13.93;100.00
49723;BME280;43484;43.608;1.458;2023-03-23T08:25:36;99355.22;;;13.97;100.00
49723;BME280;43484;43.608;1.458;2023-03-23T08:28:02;99352.66;;;14.00;100.00
49723;BME280;43484;43.608;1.458;2023-03-23T08:30:29;99357.84;;;14.03;100.00
49723;BME280;43484;43.608;1.458;2023-03-23T08:32:57;99372.53;;;14.13;100.00
49723;BME280;43484;43.608;1.458;2023-03-23T08:35:24;99369.06;;;14.13;100.00
49723;BME280;43484;43.608;1.458;2023-03-23T08:37:49;99376.84;;;14.22;100.00
49723;BME280;43484;43.608;1.458;2023-03-23T08:40:21;99389.94;;;14.41;100.00
49723;BME280;43484;43.608;1.458;2023-03-23T08:42:48;99415.03;;;14.66;100.00
49723;BME280;43484;43.608;1.458;2023-03-23T08:45:17;99453.81;;;14.86;100.00
49723;BME280;43484;43.608;1.458;2023-03-23T08:47:43;99458.22;;;15.03;100.00
49723;BME280;43484;43.608;1.458;2023-03-23T08:50:13;99478.91;;;15.17;100.00
49723;BME280;43484;43.608;1.458;2023-03-23T08:52:39;99478.97;;;15.28;100.00
49723;BME280;43484;43.608;1.458;2023-03-23T08:55:05;99485.91;;;15.36;100.00
49723;BME280;43484;43.608;1.458;2023-03-23T08:57:31;99489.38;;;15.38;100.00
49723;BME280;43484;43.608;1.458;2023-03-23T08:59:56;99503.09;;;15.34;100.00
49723;BME280;43484;43.608;1.458;2023-03-23T09:02:33;99507.34;;;15.23;100.00
49723;BME280;43484;43.608;1.458;2023-03-23T09:04:59;99508.25;;;15.34;100.00
49723;BME280;43484;43.608;1.458;2023-03-23T09:07:26;99512.50;;;15.22;100.00
49723;BME280;43484;43.608;1.458;2023-03-23T09:09:52;99515.13;;;15.28;100.00
49723;BME280;43484;43.608;1.458;2023-03-23T09:12:18;99503.91;;;15.27;100.00
49723;BME280;43484;43.608;1.458;2023-03-23T09:14:43;99502.25;;;15.35;100.00
49723;BME280;43484;43.608;1.458;2023-03-23T09:17:09;99507.41;;;15.35;100.00
49723;BME280;43484;43.608;1.458;2023-03-23T09:19:38;99510.84;;;15.36;100.00
49723;BME280;43484;43.608;1.458;2023-03-23T09:22:03;99498.91;;;15.47;100.00
49723;BME280;43484;43.608;1.458;2023-03-23T09:24:29;99508.44;;;15.63;100.00
49723;BME280;43484;43.608;1.458;2023-03-23T09:26:55;99511.88;;;15.63;100.00
49723;BME280;43484;43.608;1.458;2023-03-23T09:29:20;99496.41;;;15.68;100.00
49723;BME280;43484;43.608;1.458;2023-03-23T09:31:46;99514.53;;;15.80;100.00
49723;BME280;43484;43.608;1.458;2023-03-23T09:34:13;99503.31;;;15.78;100.00
49723;BME280;43484;43.608;1.458;2023-03-23T09:36:41;99502.47;;;15.77;100.00
49723;BME280;43484;43.608;1.458;2023-03-23T09:39:07;99516.28;;;15.87;100.00
49723;BME280;43484;43.608;1.458;2023-03-23T09:44:49;99521.44;;;15.91;100.00
49723;BME280;43484;43.608;1.458;2023-03-23T09:47:34;99531.81;;;15.99;100.00
49723;BME280;43484;43.608;1.458;2023-03-23T09:50:17;99533.53;;;16.01;100.00
49723;BME280;43484;43.608;1.458;2023-03-23T09:52:56;99540.41;;;16.01;100.00
49723;BME280;43484;43.608;1.458;2023-03-23T09:55:24;99530.06;;;15.99;100.00
49723;BME280;43484;43.608;1.458;2023-03-23T09:57:57;99533.53;;;16.00;100.00
49723;BME280;43484;43.608;1.458;2023-03-23T10:00:37;99540.44;;;16.05;100.00
49723;BME280;43484;43.608;1.458;2023-03-23T10:03:16;99545.56;;;15.99;100.00
49723;BME280;43484;43.608;1.458;2023-03-23T10:05:46;99541.31;;;16.19;100.00
49723;BME280;43484;43.608;1.458;2023-03-23T10:08:20;99544.78;;;16.21;100.00
49723;BME280;43484;43.608;1.458;2023-03-23T10:13:51;99538.69;;;16.03;100.00
49723;BME280;43484;43.608;1.458;2023-03-23T10:16:25;99524.94;;;16.11;100.00
49723;BME280;43484;43.608;1.458;2023-03-23T10:19:01;99530.13;;;16.28;100.00
49723;BME280;43484;43.608;1.458;2023-03-23T10:21:29;99522.38;;;16.22;100.00
49723;BME280;43484;43.608;1.458;2023-03-23T10:24:02;99526.69;;;16.18;100.00
49723;BME280;43484;43.608;1.458;2023-03-23T10:29:21;99537.03;;;16.20;100.00
49723;BME280;43484;43.608;1.458;2023-03-23T10:32:01;99539.56;;;16.05;100.00
49723;BME280;43484;43.608;1.458;2023-03-23T10:34:34;99540.44;;;16.13;100.00
49723;BME280;43484;43.608;1.458;2023-03-23T10:37:25;99544.78;;;16.17;100.00
49723;BME280;43484;43.608;1.458;2023-03-23T10:39:54;99536.16;;;16.10;100.00
49723;BME280;43484;43.608;1.458;2023-03-23T10:42:26;99538.78;;;16.27;100.00
49723;BME280;43484;43.608;1.458;2023-03-23T10:44:53;99543.94;;;16.30;100.00
49723;BME280;43484;43.608;1.458;2023-03-23T10:47:22;99543.97;;;16.39;100.00
49723;BME280;43484;43.608;1.458;2023-03-23T10:49:59;99551.78;;;16.53;100.00
49723;BME280;43484;43.608;1.458;2023-03-23T10:52:39;99553.47;;;16.60;100.00
49723;BME280;43484;43.608;1.458;2023-03-23T10:57:39;99534.53;;;16.74;100.00
49723;BME280;43484;43.608;1.458;2023-03-23T11:00:17;99518.13;;;16.77;100.00
49723;BME280;43484;43.608;1.458;2023-03-23T11:02:59;99512.97;;;16.84;100.00
49723;BME280;43484;43.608;1.458;2023-03-23T11:05:37;99508.66;;;16.88;100.00
49723;BME280;43484;43.608;1.458;2023-03-23T11:08:12;99506.06;;;16.82;100.00
49723;BME280;43484;43.608;1.458;2023-03-23T11:10:41;99487.09;;;16.90;100.00
49723;BME280;43484;43.608;1.458;2023-03-23T11:13:13;99493.09;;;17.01;100.00
49723;BME280;43484;43.608;1.458;2023-03-23T11:15:41;99496.56;;;17.08;100.00
49723;BME280;43484;43.608;1.458;2023-03-23T11:18:13;99483.59;;;17.14;100.00
49723;BME280;43484;43.608;1.458;2023-03-23T11:20:48;99480.09;;;17.28;100.00
49723;BME280;43484;43.608;1.458;2023-03-23T11:23:33;99472.31;;;17.31;100.00
49723;BME280;43484;43.608;1.458;2023-03-23T11:26:22;99477.50;;;17.25;100.00
49723;BME280;43484;43.608;1.458;2023-03-23T11:31:36;99456.78;;;17.36;100.00
49723;BME280;43484;43.608;1.458;2023-03-23T11:34:13;99465.38;;;17.45;100.00
49723;BME280;43484;43.608;1.458;2023-03-23T11:36:43;99459.34;;;17.39;100.00
49723;BME280;43484;43.608;1.458;2023-03-23T11:39:26;99455.03;;;17.35;100.00
49723;BME280;43484;43.608;1.458;2023-03-23T11:41:54;99460.22;;;17.45;100.00
49723;BME280;43484;43.608;1.458;2023-03-23T11:44:23;99452.38;;;17.58;100.00
49723;BME280;43484;43.608;1.458;2023-03-23T11:46:57;99450.63;;;17.66;100.00
49723;BME280;43484;43.608;1.458;2023-03-23T11:51:59;99463.59;;;17.57;100.00
49723;BME280;43484;43.608;1.458;2023-03-23T11:54:39;99441.13;;;17.65;100.00
49723;BME280;43484;43.608;1.458;2023-03-23T11:57:11;99441.94;;;17.76;100.00
49723;BME280;43484;43.608;1.458;2023-03-23T11:59:39;99435.84;;;17.84;100.00
49723;BME280;43484;43.608;1.458;2023-03-23T12:08:01;99426.09;;;18.19;100.00
49723;BME280;43484;43.608;1.458;2023-03-23T12:10:39;99424.31;;;18.23;100.00
49723;BME280;43484;43.608;1.458;2023-03-23T12:26:31;99397.25;;;18.55;100.00
49723;BME280;43484;43.608;1.458;2023-03-23T12:32:13;99395.59;;;18.50;100.00
49723;BME280;43484;43.608;1.458;2023-03-23T12:35:22;99395.69;;;18.39;100.00
49723;BME280;43484;43.608;1.458;2023-03-23T12:49:06;99353.22;;;18.51;100.00
49723;BME280;43484;43.608;1.458;2023-03-23T12:54:31;99356.84;;;18.27;100.00
49723;BME280;43484;43.608;1.458;2023-03-23T12:57:10;99343.06;;;18.27;100.00
49723;BME280;43484;43.608;1.458;2023-03-23T13:00:12;99347.41;;;18.25;100.00
49723;BME280;43484;43.608;1.458;2023-03-23T13:02:43;99351.69;;;18.27;100.00
49723;BME280;43484;43.608;1.458;2023-03-23T13:07:59;99342.13;;;18.32;100.00
49723;BME280;43484;43.608;1.458;2023-03-23T13:10:36;99335.28;;;18.27;100.00
49723;BME280;43484;43.608;1.458;2023-03-23T13:13:10;99329.25;;;18.25;100.00
49723;BME280;43484;43.608;1.458;2023-03-23T13:15:51;99330.91;;;18.33;100.00
49723;BME280;43484;43.608;1.458;2023-03-23T13:21:15;99328.25;;;18.39;100.00
49723;BME280;43484;43.608;1.458;2023-03-23T13:23:57;99325.66;;;18.39;100.00
49723;BME280;43484;43.608;1.458;2023-03-23T13:26:25;99328.19;;;18.47;100.00
49723;BME280;43484;43.608;1.458;2023-03-23T13:29:06;99327.09;;;18.67;100.00
49723;BME280;43484;43.608;1.458;2023-03-23T13:31:38;99317.75;;;18.51;100.00
49723;BME280;43484;43.608;1.458;2023-03-23T13:36:45;99300.34;;;18.62;100.00
49723;BME280;43484;43.608;1.458;2023-03-23T13:39:32;99296.72;;;18.75;100.00
49723;BME280;43484;43.608;1.458;2023-03-23T13:47:20;99279.34;;;18.84;100.00
49723;BME280;43484;43.608;1.458;2023-03-23T13:49:59;99274.16;;;18.82;100.00
49723;BME280;43484;43.608;1.458;2023-03-23T13:57:57;99262.81;;;18.89;100.00
49723;BME280;43484;43.608;1.458;2023-03-23T14:00:33;99263.41;;;19.08;100.00
49723;BME280;43484;43.608;1.458;2023-03-23T14:03:05;99265.03;;;19.16;100.00
49723;BME280;43484;43.608;1.458;2023-03-23T14:05:36;99263.56;;;18.99;100.00
49723;BME280;43484;43.608;1.458;2023-03-23T14:08:11;99250.66;;;18.93;100.00
49723;BME280;43484;43.608;1.458;2023-03-23T14:10:44;99253.09;;;19.05;100.00
49723;BME280;43484;43.608;1.458;2023-03-23T14:13:19;99254.19;;;18.87;100.00
49723;BME280;43484;43.608;1.458;2023-03-23T14:18:59;99233.47;;;18.83;100.00
49723;BME280;43484;43.608;1.458;2023-03-23T14:21:36;99235.03;;;18.96;100.00
49723;BME280;43484;43.608;1.458;2023-03-23T14:24:10;99225.53;;;18.95;100.00
49723;BME280;43484;43.608;1.458;2023-03-23T14:26:37;99230.78;;;18.90;100.00
49723;BME280;43484;43.608;1.458;2023-03-23T14:29:04;99229.09;;;18.88;100.00
49723;BME280;43484;43.608;1.458;2023-03-23T14:31:31;99229.94;;;18.90;100.00
49723;BME280;43484;43.608;1.458;2023-03-23T14:34:05;99226.50;;;18.88;100.00
49723;BME280;43484;43.608;1.458;2023-03-23T14:36:38;99226.66;;;18.74;100.00
49723;BME280;43484;43.608;1.458;2023-03-23T14:39:16;99221.47;;;18.75;100.00
49723;BME280;43484;43.608;1.458;2023-03-23T14:41:42;99221.63;;;18.65;100.00
49723;BME280;43484;43.608;1.458;2023-03-23T14:44:21;99219.81;;;18.70;100.00
49723;BME280;43484;43.608;1.458;2023-03-23T14:46:48;99218.94;;;18.69;100.00
49723;BME280;43484;43.608;1.458;2023-03-23T14:49:19;99207.88;;;18.57;100.00